Time;durP1;ratioP1;P1;durP2;ratioP2;P2;SDS_P1;SDS_P2;PMS_P1;PMS_P2;Temp;Humidity;BMP_temperature;BMP_pressure;BME280_temperature;BME280_humidity;BME280_pressure;Samples;Min_cycle;Max_cycle;Signal;HPM_P1;HPM_P2
2024/01/27 00:04:21;;;;;;;12.37;4.60;;;;;2.10;102989.00;;;;12911003;22;20212;-79
2024/01/27 00:09:23;;;;;;;12.10;4.77;;;;;2.00;102988.00;;;;12936471;22;20232;-80
2024/01/27 00:14:25;;;;;;;18.97;5.20;;;;;1.90;102981.00;;;;12876061;22;20224;-80
2024/01/27 00:19:27;;;;;;;11.90;5.17;;;;;1.80;102988.00;;;;12929926;22;20216;-81
2024/01/27 00:24:29;;;;;;;15.20;4.33;;;;;1.80;102993.00;;;;12733366;22;20206;-81
2024/01/27 00:29:31;;;;;;;12.67;4.37;;;;;1.80;102978.00;;;;12750995;22;20203;-80
2024/01/27 00:34:33;;;;;;;16.13;4.60;;;;;1.70;102987.00;;;;12680425;23;20240;-80
2024/01/27 00:39:34;;;;;;;14.37;4.43;;;;;1.60;103002.00;;;;12678798;23;20278;-80
2024/01/27 00:44:36;;;;;;;18.37;5.00;;;;;1.60;103004.00;;;;12629779;23;20535;-80
2024/01/27 00:49:38;;;;;;;14.50;4.93;;;;;1.80;102993.00;;;;12679306;23;20278;-80
2024/01/27 00:54:40;;;;;;;15.63;4.40;;;;;1.80;102989.00;;;;12678890;23;20245;-80
2024/01/27 00:59:42;;;;;;;11.23;4.77;;;;;1.70;102991.00;;;;12704563;23;20207;-79
2024/01/27 01:04:44;;;;;;;16.13;4.30;;;;;1.60;102991.00;;;;12655362;23;20199;-78
2024/01/27 01:09:46;;;;;;;15.07;4.60;;;;;1.50;102985.00;;;;12655972;23;20278;-79
2024/01/27 01:14:48;;;;;;;14.70;4.87;;;;;1.40;102977.00;;;;12653829;23;20279;-78
2024/01/27 01:19:50;;;;;;;17.33;5.47;;;;;1.50;102973.00;;;;12678198;23;20203;-78
2024/01/27 01:24:52;;;;;;;16.20;5.63;;;;;1.50;102972.00;;;;12703763;23;20198;-78
2024/01/27 01:29:54;;;;;;;9.57;4.07;;;;;1.40;102968.00;;;;12629391;23;20279;-79
2024/01/27 01:34:56;;;;;;;16.23;5.03;;;;;1.30;102966.00;;;;12654340;23;20275;-78
2024/01/27 01:39:58;;;;;;;17.53;4.53;;;;;1.20;102970.00;;;;12679586;23;20249;-78
2024/01/27 01:45:01;;;;;;;19.90;6.03;;;;;1.10;102969.00;;;;12677989;23;20579;-79
2024/01/27 01:50:05;;;;;;;14.77;5.23;;;;;1.10;102966.00;;;;12678938;23;20524;-78
2024/01/27 01:55:07;;;;;;;14.43;5.30;;;;;1.10;102983.00;;;;12681908;23;20200;-78
2024/01/27 02:00:13;;;;;;;14.87;5.30;;;;;1.10;102984.00;;;;12655178;23;20199;-81
2024/01/27 02:05:16;;;;;;;10.53;5.07;;;;;1.20;102981.00;;;;12673067;23;20208;-78
2024/01/27 02:10:18;;;;;;;13.00;5.37;;;;;1.30;102983.00;;;;12677303;23;20523;-79
2024/01/27 02:15:21;;;;;;;15.37;5.23;;;;;1.40;102984.00;;;;12680920;23;20208;-81
2024/01/27 02:20:23;;;;;;;20.80;6.17;;;;;1.40;102981.00;;;;12654784;23;20271;-80
2024/01/27 02:25:25;;;;;;;18.50;5.00;;;;;1.40;102979.00;;;;12655106;23;20199;-81
2024/01/27 02:30:27;;;;;;;12.93;5.30;;;;;1.40;102985.00;;;;12654499;23;20270;-81
2024/01/27 02:35:29;;;;;;;12.13;5.57;;;;;1.40;102987.00;;;;12680224;23;20192;-81
2024/01/27 02:40:31;;;;;;;18.57;6.13;;;;;1.30;102978.00;;;;12666019;23;20270;-81
2024/01/27 02:45:32;;;;;;;15.73;6.10;;;;;1.30;102988.00;;;;12634233;23;20203;-81
2024/01/27 02:50:34;;;;;;;16.13;5.63;;;;;1.30;102980.00;;;;12657565;23;20187;-81
2024/01/27 02:55:36;;;;;;;13.83;5.80;;;;;1.30;102998.00;;;;12656300;23;20571;-80
2024/01/27 03:00:38;;;;;;;12.77;5.93;;;;;1.40;102992.00;;;;12655489;23;20195;-80
2024/01/27 03:05:40;;;;;;;15.10;6.00;;;;;1.30;102994.00;;;;12654760;23;20416;-80
2024/01/27 03:10:42;;;;;;;14.20;6.70;;;;;1.30;102986.00;;;;12680687;23;20191;-81
2024/01/27 03:15:44;;;;;;;16.73;5.83;;;;;1.20;102990.00;;;;12679847;23;20272;-80
2024/01/27 03:20:46;;;;;;;11.73;5.33;;;;;1.20;102986.00;;;;12630075;23;20226;-80
2024/01/27 03:25:48;;;;;;;15.57;6.33;;;;;1.20;102991.00;;;;12705675;23;20199;-85
2024/01/27 03:30:49;;;;;;;12.50;5.20;;;;;1.30;102988.00;;;;12679773;23;20262;-86
2024/01/27 03:35:51;;;;;;;12.53;5.70;;;;;1.40;102999.00;;;;12681200;23;20198;-84
2024/01/27 03:40:53;;;;;;;10.33;5.03;;;;;1.40;102991.00;;;;12680558;23;20230;-87
2024/01/27 03:45:55;;;;;;;16.27;7.10;;;;;1.40;102981.00;;;;12656721;23;20205;-86
2024/01/27 03:50:57;;;;;;;16.80;5.73;;;;;1.40;102986.00;;;;12705991;23;20202;-86
2024/01/27 03:56:02;;;;;;;25.13;6.50;;;;;1.40;102979.00;;;;12680084;23;20245;-87
2024/01/27 04:01:04;;;;;;;19.20;6.90;;;;;1.30;102982.00;;;;12681275;23;20257;-86
2024/01/27 04:06:06;;;;;;;17.23;6.73;;;;;1.40;102985.00;;;;12662518;23;20204;-87
2024/01/27 04:11:08;;;;;;;12.43;5.77;;;;;1.40;102985.00;;;;12668236;23;20657;-86
2024/01/27 04:16:10;;;;;;;12.43;5.77;;;;;1.30;102988.00;;;;12704892;23;20192;-86
2024/01/27 04:21:12;;;;;;;15.40;6.33;;;;;1.40;102986.00;;;;12654644;23;20219;-85
2024/01/27 04:26:14;;;;;;;14.80;5.60;;;;;1.40;102987.00;;;;12632051;23;20721;-86
2024/01/27 04:31:15;;;;;;;13.37;5.90;;;;;1.50;102997.00;;;;12679312;23;20257;-85
2024/01/27 04:36:36;;;;;;;20.70;5.83;;;;;1.50;102993.00;;;;12679528;23;20678;-79
2024/01/27 04:41:42;;;;;;;20.87;5.77;;;;;1.40;103001.00;;;;12655617;23;20191;-80
2024/01/27 04:46:44;;;;;;;17.43;5.83;;;;;1.30;102987.00;;;;12678737;23;20256;-79
2024/01/27 04:51:46;;;;;;;17.80;5.67;;;;;1.20;102989.00;;;;12654799;23;20212;-80
2024/01/27 04:56:48;;;;;;;12.53;6.00;;;;;1.20;102997.00;;;;12680164;22;20222;-78
2024/01/27 05:01:50;;;;;;;10.70;5.63;;;;;1.10;102990.00;;;;12677820;23;20209;-79
2024/01/27 05:06:52;;;;;;;16.07;5.93;;;;;1.10;102983.00;;;;12704649;22;20211;-79
2024/01/27 05:11:54;;;;;;;17.23;6.47;;;;;1.10;102986.00;;;;12654063;23;20591;-79
2024/01/27 05:16:56;;;;;;;26.47;6.97;;;;;1.20;102987.00;;;;12653551;23;20811;-81
2024/01/27 05:21:58;;;;;;;21.30;6.70;;;;;1.20;102973.00;;;;12702561;23;20199;-78
2024/01/27 05:27:01;;;;;;;22.57;6.17;;;;;1.20;102975.00;;;;12678994;23;20229;-79
2024/01/27 05:32:03;;;;;;;23.10;6.60;;;;;1.30;102982.00;;;;12658635;23;20195;-79
2024/01/27 05:37:05;;;;;;;18.20;5.83;;;;;1.30;102968.00;;;;12656013;23;20241;-79
2024/01/27 05:42:06;;;;;;;19.93;6.50;;;;;1.20;102971.00;;;;12657755;23;20576;-81
2024/01/27 05:47:10;;;;;;;18.47;6.47;;;;;1.20;102978.00;;;;12679886;23;20723;-80
2024/01/27 05:52:13;;;;;;;22.03;6.60;;;;;1.10;102981.00;;;;12632849;23;20587;-81
2024/01/27 05:57:26;;;;;;;21.33;6.63;;;;;1.00;102986.00;;;;12658195;23;20272;-80
2024/01/27 06:02:28;;;;;;;13.37;5.53;;;;;1.10;102988.00;;;;12630555;23;20210;-81
2024/01/27 06:07:29;;;;;;;30.03;6.57;;;;;1.10;102993.00;;;;12678074;23;20253;-81
2024/01/27 06:12:31;;;;;;;13.73;5.90;;;;;1.10;102994.00;;;;12650406;23;20202;-81
2024/01/27 06:17:33;;;;;;;25.93;7.50;;;;;1.10;102999.00;;;;12647348;23;20245;-80
2024/01/27 06:22:35;;;;;;;15.07;6.17;;;;;1.10;103014.00;;;;12671699;23;20217;-80
2024/01/27 06:27:43;;;;;;;25.43;7.50;;;;;1.20;103011.00;;;;12674362;23;20282;-81
2024/01/27 06:32:46;;;;;;;24.67;7.53;;;;;1.30;103019.00;;;;12652954;23;20198;-80
2024/01/27 06:37:50;;;;;;;18.10;6.17;;;;;1.30;103021.00;;;;12654729;23;20211;-81
2024/01/27 06:42:52;;;;;;;13.77;4.87;;;;;1.30;103028.00;;;;12655667;23;20731;-81
2024/01/27 06:47:53;;;;;;;17.53;5.60;;;;;1.30;103024.00;;;;12704243;23;20218;-81
2024/01/27 06:52:55;;;;;;;15.73;5.40;;;;;1.30;103012.00;;;;12679390;23;20188;-80
2024/01/27 06:57:57;;;;;;;16.60;6.93;;;;;1.20;103013.00;;;;12630305;23;20188;-81
2024/01/27 07:02:59;;;;;;;20.73;6.20;;;;;1.20;103005.00;;;;12656154;23;20225;-80
2024/01/27 07:08:02;;;;;;;17.33;6.23;;;;;1.30;103009.00;;;;12656345;23;20635;-80
2024/01/27 07:13:06;;;;;;;16.63;6.20;;;;;1.40;103012.00;;;;12632134;23;20222;-80
2024/01/27 07:18:09;;;;;;;17.10;6.17;;;;;1.40;103036.00;;;;12630932;23;20215;-80
2024/01/27 07:23:11;;;;;;;17.27;5.83;;;;;1.30;103030.00;;;;12679805;23;20192;-80
2024/01/27 07:28:15;;;;;;;14.20;5.67;;;;;1.30;103022.00;;;;12656568;23;20200;-80
2024/01/27 07:33:17;;;;;;;25.53;6.23;;;;;1.40;103010.00;;;;12656378;23;20222;-80
2024/01/27 07:38:19;;;;;;;24.77;7.50;;;;;1.50;103027.00;;;;12629219;23;20195;-80
2024/01/27 07:43:21;;;;;;;14.27;5.23;;;;;1.60;103015.00;;;;12678171;23;20215;-80
2024/01/27 07:48:23;;;;;;;15.60;5.80;;;;;1.50;103017.00;;;;12678040;23;20329;-80
2024/01/27 07:53:25;;;;;;;13.43;5.93;;;;;1.60;103016.00;;;;12704359;23;20211;-80
2024/01/27 07:58:27;;;;;;;16.00;6.80;;;;;1.60;103022.00;;;;12653855;23;20278;-80
2024/01/27 08:03:28;;;;;;;19.77;8.43;;;;;1.70;103014.00;;;;12654323;23;20200;-80
2024/01/27 08:08:30;;;;;;;15.97;7.10;;;;;1.80;103007.00;;;;12655079;23;20199;-80
2024/01/27 08:13:32;;;;;;;21.37;6.63;;;;;1.90;103013.00;;;;12654549;23;20199;-80
2024/01/27 08:18:35;;;;;;;22.17;6.53;;;;;1.90;103035.00;;;;12627839;23;20267;-80
2024/01/27 08:23:38;;;;;;;14.80;5.97;;;;;2.10;103028.00;;;;12701492;23;20706;-80
2024/01/27 08:28:40;;;;;;;14.20;6.53;;;;;2.30;103029.00;;;;12654830;23;20224;-80
2024/01/27 08:33:42;;;;;;;19.83;6.23;;;;;2.50;103028.00;;;;12677607;23;20218;-80
2024/01/27 08:38:44;;;;;;;18.13;7.30;;;;;2.70;103032.00;;;;12656356;23;20278;-80
2024/01/27 08:43:46;;;;;;;24.50;7.43;;;;;2.90;103047.00;;;;12652121;23;20200;-80
2024/01/27 08:48:48;;;;;;;18.20;7.10;;;;;3.10;103044.00;;;;12650216;23;20515;-80
2024/01/27 08:53:50;;;;;;;20.80;7.70;;;;;3.30;103042.00;;;;12650338;23;20836;-80
2024/01/27 08:58:52;;;;;;;22.33;6.53;;;;;3.70;103042.00;;;;12670717;23;20211;-80
2024/01/27 09:03:55;;;;;;;25.63;7.90;;;;;4.20;103049.00;;;;12643692;23;20256;-80
2024/01/27 09:08:56;;;;;;;25.63;7.87;;;;;4.70;103054.00;;;;12669562;23;20206;-79
2024/01/27 09:13:58;;;;;;;22.93;8.40;;;;;5.20;103063.00;;;;12619813;23;21026;-78
2024/01/27 09:19:01;;;;;;;23.37;7.03;;;;;5.70;103072.00;;;;12645269;23;20223;-79
2024/01/27 09:24:04;;;;;;;18.13;5.57;;;;;6.00;103071.00;;;;12624189;23;20474;-78
2024/01/27 09:29:07;;;;;;;19.23;6.17;;;;;6.40;103087.00;;;;12697043;23;20808;-78
2024/01/27 09:34:08;;;;;;;19.03;6.23;;;;;6.90;103087.00;;;;12666532;23;20195;-78
2024/01/27 09:39:11;;;;;;;14.10;5.87;;;;;7.30;103099.00;;;;12618908;23;20549;-79
2024/01/27 09:44:15;;;;;;;20.00;6.17;;;;;7.50;103102.00;;;;12748289;23;20261;-79
2024/01/27 09:49:17;;;;;;;19.70;8.23;;;;;7.80;103114.00;;;;12654275;23;20222;-80
2024/01/27 09:54:20;;;;;;;20.70;7.00;;;;;8.00;103111.00;;;;12679823;23;20564;-78
2024/01/27 09:59:22;;;;;;;23.40;6.70;;;;;8.20;103110.00;;;;12678667;23;20213;-79
2024/01/27 10:04:25;;;;;;;18.70;5.63;;;;;8.50;103115.00;;;;12679640;23;20200;-78
2024/01/27 10:09:27;;;;;;;14.73;5.70;;;;;8.80;103126.00;;;;12654952;23;20230;-79
2024/01/27 10:14:42;;;;;;;14.03;5.13;;;;;8.90;103131.00;;;;12655287;23;20195;-78
2024/01/27 10:19:43;;;;;;;14.17;6.07;;;;;9.30;103131.00;;;;12679675;23;20196;-79
2024/01/27 10:24:47;;;;;;;11.33;5.20;;;;;9.60;103123.00;;;;12655864;23;20196;-79
2024/01/27 10:29:54;;;;;;;19.77;6.33;;;;;10.00;103133.00;;;;12654869;23;20252;-80
2024/01/27 10:35:08;;;;;;;14.50;5.33;;;;;10.10;103129.00;;;;12655556;23;20191;-80
2024/01/27 10:40:10;;;;;;;15.67;5.40;;;;;9.70;103135.00;;;;12632509;23;20223;-80
2024/01/27 10:45:12;;;;;;;12.73;5.27;;;;;9.30;103122.00;;;;12654872;23;20282;-79
2024/01/27 10:50:14;;;;;;;20.17;5.37;;;;;9.40;103122.00;;;;12655548;23;20199;-80
2024/01/27 10:55:17;;;;;;;9.10;2.70;;;;;9.20;103130.00;;;;12705810;23;20192;-78
2024/01/27 11:00:19;;;;;;;10.30;2.87;;;;;8.80;103133.00;;;;12679491;23;20276;-80
2024/01/27 11:05:22;;;;;;;10.33;2.90;;;;;8.70;103108.00;;;;12632344;23;20192;-80
2024/01/27 11:10:26;;;;;;;10.60;3.07;;;;;9.90;103108.00;;;;12656579;23;20191;-80
2024/01/27 11:15:28;;;;;;;11.03;3.30;;;;;10.60;103101.00;;;;12679643;23;20207;-79
2024/01/27 11:20:34;;;;;;;11.93;3.33;;;;;10.90;103106.00;;;;12630282;23;20203;-81
2024/01/27 11:25:36;;;;;;;9.77;2.70;;;;;11.10;103091.00;;;;12629688;23;20699;-80
2024/01/27 11:30:39;;;;;;;9.57;3.10;;;;;11.30;103081.00;;;;12627833;23;20195;-80
2024/01/27 11:35:41;;;;;;;7.82;2.45;;;;;11.50;103097.00;;;;12655966;23;20250;-80
2024/01/27 11:40:47;;;;;;;11.60;3.13;;;;;11.30;103094.00;;;;12679207;23;20199;-79
2024/01/27 11:45:58;;;;;;;8.63;2.90;;;;;11.00;103097.00;;;;12630047;23;20206;-80
2024/01/27 11:51:11;;;;;;;7.53;3.00;;;;;10.50;103095.00;;;;12625109;23;20219;-80
2024/01/27 11:56:13;;;;;;;13.20;3.03;;;;;10.20;103106.00;;;;12671781;23;20227;-81
2024/01/27 12:01:16;;;;;;;10.30;2.57;;;;;10.20;103093.00;;;;12655099;23;20240;-80
2024/01/27 12:06:18;;;;;;;9.90;2.87;;;;;10.00;103093.00;;;;12655174;23;20531;-80
2024/01/27 12:11:21;;;;;;;10.90;3.50;;;;;9.90;103078.00;;;;12651547;23;20210;-80
2024/01/27 12:16:26;;;;;;;10.93;2.77;;;;;9.90;103081.00;;;;12657471;23;20200;-81
2024/01/27 12:21:28;;;;;;;8.80;2.33;;;;;10.00;103077.00;;;;12679295;23;20195;-81
2024/01/27 12:26:31;;;;;;;12.23;2.73;;;;;10.40;103063.00;;;;12630987;23;20207;-81
2024/01/27 12:31:33;;;;;;;10.13;2.80;;;;;10.50;103069.00;;;;12654499;23;20192;-80
2024/01/27 12:36:41;;;;;;;7.77;2.57;;;;;10.40;103056.00;;;;12677776;23;20253;-80
2024/01/27 12:41:43;;;;;;;12.60;2.67;;;;;10.50;103036.00;;;;12655357;23;20225;-80
2024/01/27 12:46:45;;;;;;;6.40;2.33;;;;;10.60;103042.00;;;;12677348;23;20268;-83
2024/01/27 12:51:48;;;;;;;12.03;3.13;;;;;10.60;103037.00;;;;12652188;23;20238;-83
2024/01/27 12:56:50;;;;;;;6.93;2.63;;;;;10.80;103020.00;;;;12678549;23;20221;-82
2024/01/27 13:01:52;;;;;;;13.13;2.53;;;;;11.20;103014.00;;;;12653345;23;20203;-83
2024/01/27 13:06:54;;;;;;;7.45;2.53;;;;;11.80;102999.00;;;;12679636;23;20254;-82
2024/01/27 13:11:56;;;;;;;9.50;2.60;;;;;11.90;103009.00;;;;12655231;23;20199;-82
2024/01/27 13:16:59;;;;;;;10.05;2.65;;;;;11.70;102992.00;;;;12651738;23;20235;-83
2024/01/27 13:22:03;;;;;;;8.88;2.75;;;;;11.90;102980.00;;;;12650708;23;20373;-83
2024/01/27 13:27:05;;;;;;;6.93;2.10;;;;;11.90;102970.00;;;;12652129;23;20204;-82
2024/01/27 13:32:07;;;;;;;4.88;2.20;;;;;11.90;102971.00;;;;12666600;23;20514;-81
2024/01/27 13:37:10;;;;;;;8.60;2.20;;;;;11.90;102962.00;;;;12629937;23;20198;-83
2024/01/27 13:42:12;;;;;;;6.05;1.65;;;;;11.80;102971.00;;;;12702700;23;20191;-83
2024/01/27 13:47:14;;;;;;;5.27;1.90;;;;;11.70;102977.00;;;;12652659;22;20258;-82
2024/01/27 13:52:16;;;;;;;6.30;2.30;;;;;11.40;102968.00;;;;12679440;23;20221;-82
2024/01/27 13:57:18;;;;;;;7.33;2.40;;;;;11.20;102963.00;;;;12655987;23;20219;-79
2024/01/27 14:02:20;;;;;;;4.53;1.70;;;;;11.30;102959.00;;;;12679155;23;20245;-79
2024/01/27 14:07:22;;;;;;;3.50;1.43;;;;;11.50;102972.00;;;;12677512;23;20216;-80
2024/01/27 14:12:24;;;;;;;5.47;2.10;;;;;11.70;102970.00;;;;12679842;23;20199;-80
2024/01/27 14:17:26;;;;;;;5.63;1.90;;;;;11.60;102967.00;;;;12677118;23;20199;-80
2024/01/27 14:22:28;;;;;;;7.57;2.03;;;;;11.60;102960.00;;;;12677878;23;20757;-79
2024/01/27 14:27:30;;;;;;;9.70;2.30;;;;;11.30;102961.00;;;;12654618;23;20204;-79
2024/01/27 14:32:32;;;;;;;8.67;2.03;;;;;11.30;102956.00;;;;12631501;23;20200;-79
2024/01/27 14:37:34;;;;;;;12.30;2.03;;;;;11.40;102950.00;;;;12679284;23;20732;-80
2024/01/27 14:42:36;;;;;;;5.90;2.20;;;;;11.90;102948.00;;;;12631561;23;20222;-79
2024/01/27 14:47:38;;;;;;;4.63;2.00;;;;;10.60;102969.00;;;;12655185;23;20249;-79
2024/01/27 14:52:40;;;;;;;7.00;2.30;;;;;10.00;102963.00;;;;12678908;23;20192;-79
2024/01/27 14:57:41;;;;;;;9.67;2.47;;;;;9.50;102959.00;;;;12782544;22;20234;-80
2024/01/27 15:02:45;;;;;;;5.63;2.30;;;;;9.20;102947.00;;;;12632875;23;20946;-79
2024/01/27 15:07:47;;;;;;;10.03;2.33;;;;;9.00;102950.00;;;;12679951;23;20199;-79
2024/01/27 15:12:48;;;;;;;7.80;2.10;;;;;8.80;102949.00;;;;12679720;23;20275;-79
2024/01/27 15:17:50;;;;;;;7.43;2.20;;;;;8.60;102942.00;;;;12678041;23;20195;-79
2024/01/27 15:23:03;;;;;;;7.67;2.73;;;;;8.40;102937.00;;;;12655305;23;20192;-80
2024/01/27 15:28:06;;;;;;;9.47;2.77;;;;;8.20;102928.00;;;;12657530;23;20203;-79
2024/01/27 15:33:08;;;;;;;12.47;2.60;;;;;8.00;102928.00;;;;12632022;23;20241;-79
2024/01/27 15:38:11;;;;;;;9.50;2.30;;;;;7.90;102924.00;;;;12655699;23;20192;-79
2024/01/27 15:43:13;;;;;;;11.17;3.03;;;;;7.70;102930.00;;;;12680290;23;20311;-80
2024/01/27 15:48:14;;;;;;;14.87;3.80;;;;;7.60;102924.00;;;;12704900;23;20700;-79
2024/01/27 15:53:17;;;;;;;16.67;7.13;;;;;7.50;102929.00;;;;12655236;23;20196;-79
2024/01/27 15:58:20;;;;;;;14.20;4.60;;;;;7.30;102924.00;;;;12680028;23;20230;-80
2024/01/27 16:03:22;;;;;;;12.50;3.73;;;;;7.20;102920.00;;;;12631689;23;20192;-79
2024/01/27 16:08:24;;;;;;;16.30;3.30;;;;;6.90;102915.00;;;;12706231;23;20579;-79
2024/01/27 16:13:26;;;;;;;20.73;5.37;;;;;6.80;102918.00;;;;12656317;23;20731;-83
2024/01/27 16:18:28;;;;;;;27.30;6.90;;;;;6.50;102914.00;;;;12678258;23;20329;-84
2024/01/27 16:23:30;;;;;;;28.67;8.00;;;;;6.30;102910.00;;;;12654433;23;20200;-84
2024/01/27 16:28:33;;;;;;;24.30;8.13;;;;;6.10;102919.00;;;;12656357;23;20249;-84
2024/01/27 16:33:35;;;;;;;27.97;9.10;;;;;6.00;102921.00;;;;12631771;23;20203;-83
2024/01/27 16:38:39;;;;;;;14.37;6.60;;;;;5.90;102927.00;;;;12630969;23;20197;-81
2024/01/27 16:43:43;;;;;;;21.23;6.00;;;;;5.80;102923.00;;;;12656263;23;20198;-84
2024/01/27 16:48:45;;;;;;;20.20;6.90;;;;;5.80;102928.00;;;;12679655;23;20207;-82
2024/01/27 16:53:47;;;;;;;12.83;5.77;;;;;5.80;102922.00;;;;12681566;23;20196;-84
2024/01/27 16:58:51;;;;;;;13.00;4.57;;;;;5.70;102909.00;;;;12661522;23;20221;-83
2024/01/27 17:03:53;;;;;;;12.60;4.23;;;;;5.60;102909.00;;;;12661950;23;20199;-83
2024/01/27 17:08:55;;;;;;;41.20;17.43;;;;;5.60;102905.00;;;;12666528;23;20209;-84
2024/01/27 17:13:59;;;;;;;107.37;62.13;;;;;5.50;102907.00;;;;12655635;23;20274;-84
2024/01/27 17:19:02;;;;;;;66.93;35.77;;;;;5.40;102904.00;;;;12654981;23;20196;-84
2024/01/27 17:24:04;;;;;;;28.43;14.10;;;;;5.30;102886.00;;;;12632986;23;20696;-79
2024/01/27 17:29:07;;;;;;;33.97;16.80;;;;;5.30;102903.00;;;;12633667;23;20203;-79
2024/01/27 17:34:09;;;;;;;24.53;13.27;;;;;5.20;102903.00;;;;12656279;23;20203;-79
2024/01/27 17:39:11;;;;;;;30.97;13.60;;;;;5.00;102900.00;;;;12656541;23;20214;-80
2024/01/27 17:44:13;;;;;;;24.53;11.30;;;;;4.80;102903.00;;;;12681428;23;20241;-79
2024/01/27 17:49:15;;;;;;;20.87;8.20;;;;;4.60;102905.00;;;;12657857;23;20743;-78
2024/01/27 17:54:17;;;;;;;18.73;8.17;;;;;4.50;102887.00;;;;12656847;23;20191;-79
2024/01/27 17:59:19;;;;;;;20.67;9.57;;;;;4.60;102898.00;;;;12632361;23;20214;-79
2024/01/27 18:04:21;;;;;;;25.17;11.87;;;;;4.50;102907.00;;;;12679438;23;20226;-78
2024/01/27 18:09:23;;;;;;;21.07;11.93;;;;;4.30;102887.00;;;;12657645;23;20207;-79
2024/01/27 18:14:25;;;;;;;25.23;11.43;;;;;4.00;102887.00;;;;12656972;23;20278;-80
2024/01/27 18:19:27;;;;;;;19.50;9.00;;;;;3.80;102885.00;;;;12706358;23;20199;-80
2024/01/27 18:24:28;;;;;;;16.30;7.03;;;;;3.80;102878.00;;;;12631191;23;20199;-79
2024/01/27 18:29:31;;;;;;;14.60;5.77;;;;;3.80;102883.00;;;;12656317;23;20234;-80
2024/01/27 18:34:32;;;;;;;14.67;7.33;;;;;3.80;102876.00;;;;12656733;23;20275;-83
2024/01/27 18:39:34;;;;;;;14.57;7.87;;;;;3.60;102881.00;;;;12681279;23;20192;-83
2024/01/27 18:44:39;;;;;;;15.67;7.73;;;;;3.40;102869.00;;;;12656272;23;20195;-84
2024/01/27 18:49:41;;;;;;;17.33;7.43;;;;;3.30;102880.00;;;;12657463;23;20222;-83
2024/01/27 18:54:44;;;;;;;11.53;7.40;;;;;3.20;102866.00;;;;12657361;23;20219;-84
2024/01/27 18:59:49;;;;;;;13.80;7.60;;;;;3.10;102879.00;;;;12707143;23;20188;-84
2024/01/27 19:04:51;;;;;;;14.87;7.47;;;;;3.00;102880.00;;;;12681590;23;20202;-83
2024/01/27 19:09:53;;;;;;;19.77;8.33;;;;;2.80;102875.00;;;;12659448;23;20274;-83
2024/01/27 19:14:55;;;;;;;20.13;8.63;;;;;2.60;102879.00;;;;12682686;23;20253;-83
2024/01/27 19:19:57;;;;;;;20.77;11.20;;;;;2.50;102856.00;;;;12654704;23;20654;-84
2024/01/27 19:24:59;;;;;;;26.33;11.03;;;;;2.40;102846.00;;;;12655819;23;20911;-83
2024/01/27 19:30:01;;;;;;;21.37;9.33;;;;;2.50;102846.00;;;;12632821;23;20546;-83
2024/01/27 19:35:04;;;;;;;18.07;7.87;;;;;2.70;102845.00;;;;12707302;23;20199;-83
2024/01/27 19:40:09;;;;;;;13.57;8.00;;;;;2.90;102845.00;;;;12656692;23;20196;-83
2024/01/27 19:45:11;;;;;;;20.30;8.93;;;;;2.90;102847.00;;;;12631849;23;20737;-78
2024/01/27 19:50:13;;;;;;;18.40;9.00;;;;;2.80;102850.00;;;;12655372;23;20256;-79
2024/01/27 19:55:17;;;;;;;24.10;12.73;;;;;2.70;102847.00;;;;12656545;23;20712;-80
2024/01/27 20:00:19;;;;;;;30.60;12.23;;;;;2.70;102838.00;;;;12656499;23;20202;-79
2024/01/27 20:05:21;;;;;;;21.40;10.20;;;;;2.70;102827.00;;;;12631673;23;20195;-79
2024/01/27 20:10:23;;;;;;;24.20;12.30;;;;;2.70;102836.00;;;;12655261;23;20204;-79
2024/01/27 20:15:25;;;;;;;34.43;19.13;;;;;2.60;102828.00;;;;12705071;23;20219;-79
2024/01/27 20:20:27;;;;;;;27.70;15.93;;;;;2.50;102828.00;;;;12655531;23;20204;-79
2024/01/27 20:25:29;;;;;;;24.63;12.83;;;;;2.40;102828.00;;;;12655820;23;20559;-79
2024/01/27 20:30:31;;;;;;;19.37;9.40;;;;;2.10;102838.00;;;;12654674;23;20210;-79
2024/01/27 20:35:33;;;;;;;20.03;11.10;;;;;1.80;102826.00;;;;12655628;23;20195;-79
2024/01/27 20:40:35;;;;;;;20.33;10.60;;;;;1.60;102828.00;;;;12655361;23;20198;-78
2024/01/27 20:45:37;;;;;;;19.07;9.43;;;;;1.50;102828.00;;;;12679121;23;20195;-79
2024/01/27 20:50:42;;;;;;;18.43;9.47;;;;;1.50;102815.00;;;;12649294;23;20203;-78
2024/01/27 20:55:45;;;;;;;14.40;8.33;;;;;1.50;102807.00;;;;12630960;23;20248;-80
2024/01/27 21:00:48;;;;;;;16.80;8.40;;;;;1.50;102819.00;;;;12678016;23;20271;-81
2024/01/27 21:05:50;;;;;;;20.80;8.13;;;;;1.60;102817.00;;;;12647690;23;20223;-82
2024/01/27 21:10:53;;;;;;;17.60;8.20;;;;;1.60;102808.00;;;;12674311;23;20333;-80
2024/01/27 21:15:54;;;;;;;17.27;8.97;;;;;1.50;102810.00;;;;12630837;23;20260;-80
2024/01/27 21:20:58;;;;;;;15.97;7.87;;;;;1.40;102803.00;;;;12629646;23;20200;-80
2024/01/27 21:26:01;;;;;;;28.73;11.83;;;;;1.30;102804.00;;;;12674207;23;20701;-80
2024/01/27 21:31:05;;;;;;;23.00;11.50;;;;;1.10;102786.00;;;;12646890;23;20195;-80
2024/01/27 21:36:07;;;;;;;24.83;11.90;;;;;1.00;102778.00;;;;12652066;23;20207;-80
2024/01/27 21:41:09;;;;;;;23.03;11.27;;;;;0.80;102771.00;;;;12676170;23;20203;-80
2024/01/27 21:46:11;;;;;;;25.03;11.30;;;;;0.70;102779.00;;;;12685574;23;20195;-81
2024/01/27 21:51:13;;;;;;;21.40;10.70;;;;;0.60;102768.00;;;;12649585;23;20241;-80
2024/01/27 21:56:16;;;;;;;27.20;12.00;;;;;0.60;102756.00;;;;12650118;23;20565;-79
2024/01/27 22:01:20;;;;;;;21.63;10.87;;;;;0.50;102756.00;;;;12648697;23;20188;-80
2024/01/27 22:06:22;;;;;;;24.47;11.73;;;;;0.40;102749.00;;;;12649776;23;20635;-78
2024/01/27 22:11:24;;;;;;;21.87;10.03;;;;;0.30;102734.00;;;;12651052;23;20287;-78
2024/01/27 22:16:26;;;;;;;17.13;9.80;;;;;0.10;102738.00;;;;12628422;23;20199;-78
2024/01/27 22:21:28;;;;;;;20.67;9.83;;;;;0.00;102714.00;;;;12652745;22;20196;-79
2024/01/27 22:26:30;;;;;;;17.13;8.90;;;;;0.00;102717.00;;;;12651366;23;20206;-80
2024/01/27 22:31:32;;;;;;;16.93;8.83;;;;;-0.10;102705.00;;;;12628411;23;20224;-79
2024/01/27 22:36:34;;;;;;;15.67;8.83;;;;;-0.10;102710.00;;;;12652455;23;20196;-79
2024/01/27 22:41:36;;;;;;;15.17;9.73;;;;;0.00;102696.00;;;;12677985;23;20249;-79
2024/01/27 22:46:40;;;;;;;22.73;11.23;;;;;0.40;102686.00;;;;12652985;23;20207;-79
2024/01/27 22:51:42;;;;;;;21.00;10.63;;;;;0.70;102700.00;;;;12677646;23;20223;-80
2024/01/27 22:56:44;;;;;;;16.67;9.63;;;;;0.80;102677.00;;;;12652225;23;20199;-81
2024/01/27 23:01:46;;;;;;;19.83;10.00;;;;;0.70;102671.00;;;;12652116;23;20279;-79
2024/01/27 23:06:49;;;;;;;19.70;10.20;;;;;0.70;102674.00;;;;12653611;23;20203;-80
2024/01/27 23:11:51;;;;;;;20.27;10.30;;;;;0.60;102660.00;;;;12677072;23;20203;-79
2024/01/27 23:16:52;;;;;;;20.30;11.43;;;;;0.40;102664.00;;;;12652067;23;20804;-78
2024/01/27 23:21:54;;;;;;;23.17;11.17;;;;;0.30;102659.00;;;;12654636;23;20269;-78
2024/01/27 23:26:56;;;;;;;20.83;10.63;;;;;0.10;102656.00;;;;12680225;23;20196;-79
2024/01/27 23:31:58;;;;;;;22.60;11.83;;;;;0.00;102656.00;;;;12656243;23;20228;-78
2024/01/27 23:37:01;;;;;;;22.07;11.03;;;;;-0.10;102647.00;;;;12655729;23;20828;-79
2024/01/27 23:42:03;;;;;;;19.50;10.77;;;;;-0.20;102654.00;;;;12656367;23;20195;-76
2024/01/27 23:47:05;;;;;;;16.33;10.30;;;;;-0.30;102648.00;;;;12655422;23;20623;-79
2024/01/27 23:52:09;;;;;;;18.43;10.73;;;;;-0.50;102641.00;;;;12656189;23;20215;-80
2024/01/27 23:57:11;;;;;;;24.43;10.93;;;;;-0.50;102625.00;;;;12631172;23;20196;-79
